sensor_id;sensor_type;location;lat;lon;timestamp;pressure;altitude;pressure_sealevel;temperature;humidity
7026;BME280;3554;42.132;24.786;2023-02-20T00:01:45;99494.97;;;14.59;85.95
7026;BME280;3554;42.132;24.786;2023-02-20T00:04:12;99493.19;;;14.60;85.82
7026;BME280;3554;42.132;24.786;2023-02-20T00:06:40;99496.75;;;14.59;85.95
7026;BME280;3554;42.132;24.786;2023-02-20T00:09:07;99485.78;;;14.51;86.28
7026;BME280;3554;42.132;24.786;2023-02-20T00:11:34;99485.78;;;14.51;86.07
7026;BME280;3554;42.132;24.786;2023-02-20T00:14:01;99481.78;;;14.44;85.21
7026;BME280;3554;42.132;24.786;2023-02-20T00:16:27;99511.69;;;14.58;84.91
7026;BME280;3554;42.132;24.786;2023-02-20T00:18:54;99491.31;;;14.46;84.68
7026;BME280;3554;42.132;24.786;2023-02-20T00:21:21;99518.25;;;14.51;84.92
7026;BME280;3554;42.132;24.786;2023-02-20T00:23:49;99511.44;;;14.47;85.32
7026;BME280;3554;42.132;24.786;2023-02-20T00:26:16;99526.41;;;14.47;86.21
7026;BME280;3554;42.132;24.786;2023-02-20T00:28:43;99508.00;;;14.30;87.16
7026;BME280;3554;42.132;24.786;2023-02-20T00:31:13;99510.88;;;14.25;87.81
7026;BME280;3554;42.132;24.786;2023-02-20T00:33:40;99526.44;;;14.30;88.29
7026;BME280;3554;42.132;24.786;2023-02-20T00:36:12;99529.75;;;14.33;88.53
7026;BME280;3554;42.132;24.786;2023-02-20T00:38:41;99527.81;;;14.37;88.41
7026;BME280;3554;42.132;24.786;2023-02-20T00:41:10;99506.41;;;14.27;87.56
7026;BME280;3554;42.132;24.786;2023-02-20T00:43:38;99521.34;;;14.27;88.33
7026;BME280;3554;42.132;24.786;2023-02-20T00:46:05;99512.72;;;14.23;87.96
7026;BME280;3554;42.132;24.786;2023-02-20T00:48:32;99521.88;;;14.16;88.92
7026;BME280;3554;42.132;24.786;2023-02-20T00:50:59;99518.22;;;14.19;88.63
7026;BME280;3554;42.132;24.786;2023-02-20T00:53:26;99523.91;;;14.11;89.51
7026;BME280;3554;42.132;24.786;2023-02-20T00:55:52;99525.00;;;14.07;90.38
7026;BME280;3554;42.132;24.786;2023-02-20T00:58:20;99519.72;;;14.07;90.86
7026;BME280;3554;42.132;24.786;2023-02-20T01:00:47;99519.56;;;14.10;90.71
7026;BME280;3554;42.132;24.786;2023-02-20T01:03:14;99516.78;;;13.96;91.53
7026;BME280;3554;42.132;24.786;2023-02-20T01:05:41;99504.13;;;13.87;92.20
7026;BME280;3554;42.132;24.786;2023-02-20T01:08:07;99506.44;;;13.93;91.93
7026;BME280;3554;42.132;24.786;2023-02-20T01:10:34;99509.25;;;13.90;92.62
7026;BME280;3554;42.132;24.786;2023-02-20T01:13:01;99516.56;;;14.01;91.59
7026;BME280;3554;42.132;24.786;2023-02-20T01:15:29;99515.59;;;13.86;91.78
7026;BME280;3554;42.132;24.786;2023-02-20T01:17:56;99514.50;;;13.90;91.95
7026;BME280;3554;42.132;24.786;2023-02-20T01:20:23;99514.72;;;13.85;92.21
7026;BME280;3554;42.132;24.786;2023-02-20T01:22:50;99509.38;;;13.87;92.58
7026;BME280;3554;42.132;24.786;2023-02-20T01:25:16;99521.31;;;13.77;92.87
7026;BME280;3554;42.132;24.786;2023-02-20T01:27:43;99516.97;;;13.76;93.93
7026;BME280;3554;42.132;24.786;2023-02-20T01:30:10;99509.06;;;13.76;93.88
7026;BME280;3554;42.132;24.786;2023-02-20T01:32:38;99487.50;;;13.69;93.95
7026;BME280;3554;42.132;24.786;2023-02-20T01:35:06;99502.72;;;13.80;93.97
7026;BME280;3554;42.132;24.786;2023-02-20T01:37:33;99490.59;;;13.60;94.94
7026;BME280;3554;42.132;24.786;2023-02-20T01:40:00;99504.31;;;13.67;95.10
7026;BME280;3554;42.132;24.786;2023-02-20T01:42:29;99518.28;;;13.67;95.53
7026;BME280;3554;42.132;24.786;2023-02-20T01:45:14;99512.25;;;13.65;96.16
7026;BME280;3554;42.132;24.786;2023-02-20T01:47:42;99515.03;;;13.62;96.50
7026;BME280;3554;42.132;24.786;2023-02-20T01:50:10;99509.16;;;13.57;96.91
7026;BME280;3554;42.132;24.786;2023-02-20T01:52:38;99519.91;;;13.53;97.55
7026;BME280;3554;42.132;24.786;2023-02-20T01:55:10;99515.41;;;13.55;98.14
7026;BME280;3554;42.132;24.786;2023-02-20T01:57:42;99519.63;;;13.42;99.19
7026;BME280;3554;42.132;24.786;2023-02-20T02:00:16;99508.97;;;13.26;100.00
7026;BME280;3554;42.132;24.786;2023-02-20T02:02:49;99532.72;;;13.25;100.00
7026;BME280;3554;42.132;24.786;2023-02-20T02:05:17;99530.09;;;13.25;100.00
7026;BME280;3554;42.132;24.786;2023-02-20T02:07:44;99520.66;;;13.21;100.00
7026;BME280;3554;42.132;24.786;2023-02-20T02:10:13;99526.50;;;13.09;100.00
7026;BME280;3554;42.132;24.786;2023-02-20T02:12:45;99500.09;;;12.93;100.00
7026;BME280;3554;42.132;24.786;2023-02-20T02:15:14;99541.72;;;13.02;100.00
7026;BME280;3554;42.132;24.786;2023-02-20T02:17:54;99555.06;;;12.98;100.00
7026;BME280;3554;42.132;24.786;2023-02-20T02:20:47;99553.41;;;12.95;100.00
7026;BME280;3554;42.132;24.786;2023-02-20T02:23:48;99551.75;;;12.92;100.00
7026;BME280;3554;42.132;24.786;2023-02-20T02:26:40;99555.47;;;12.88;100.00
7026;BME280;3554;42.132;24.786;2023-02-20T02:29:32;99546.94;;;12.83;100.00
7026;BME280;3554;42.132;24.786;2023-02-20T02:32:23;99553.22;;;12.81;100.00
7026;BME280;3554;42.132;24.786;2023-02-20T02:35:12;99563.13;;;12.74;100.00
7026;BME280;3554;42.132;24.786;2023-02-20T02:37:47;99562.50;;;12.69;100.00
7026;BME280;3554;42.132;24.786;2023-02-20T02:40:20;99583.16;;;12.77;100.00
7026;BME280;3554;42.132;24.786;2023-02-20T02:42:58;99585.72;;;12.78;100.00
7026;BME280;3554;42.132;24.786;2023-02-20T02:45:31;99589.91;;;12.82;100.00
7026;BME280;3554;42.132;24.786;2023-02-20T02:48:05;99584.44;;;12.87;100.00
7026;BME280;3554;42.132;24.786;2023-02-20T02:50:36;99579.47;;;12.81;100.00
7026;BME280;3554;42.132;24.786;2023-02-20T02:53:07;99586.56;;;12.79;100.00
7026;BME280;3554;42.132;24.786;2023-02-20T02:55:35;99585.44;;;12.84;100.00
7026;BME280;3554;42.132;24.786;2023-02-20T02:58:04;99597.00;;;12.80;100.00
7026;BME280;3554;42.132;24.786;2023-02-20T03:00:34;99609.28;;;12.80;100.00
7026;BME280;3554;42.132;24.786;2023-02-20T03:03:07;99597.94;;;12.79;100.00
7026;BME280;3554;42.132;24.786;2023-02-20T03:05:39;99611.91;;;12.80;100.00
7026;BME280;3554;42.132;24.786;2023-02-20T03:08:17;99604.03;;;12.61;100.00
7026;BME280;3554;42.132;24.786;2023-02-20T03:10:57;99615.25;;;12.65;100.00
7026;BME280;3554;42.132;24.786;2023-02-20T03:13:29;99610.25;;;12.59;100.00
7026;BME280;3554;42.132;24.786;2023-02-20T03:16:18;99611.75;;;12.46;100.00
7026;BME280;3554;42.132;24.786;2023-02-20T03:18:47;99628.38;;;12.45;100.00
7026;BME280;3554;42.132;24.786;2023-02-20T03:21:17;99623.28;;;12.42;100.00
7026;BME280;3554;42.132;24.786;2023-02-20T03:23:50;99625.97;;;12.40;100.00
7026;BME280;3554;42.132;24.786;2023-02-20T03:26:23;99620.13;;;12.34;100.00
7026;BME280;3554;42.132;24.786;2023-02-20T03:28:56;99581.59;;;12.16;100.00
7026;BME280;3554;42.132;24.786;2023-02-20T03:31:30;99605.88;;;12.39;100.00
7026;BME280;3554;42.132;24.786;2023-02-20T03:34:03;99618.50;;;12.31;100.00
7026;BME280;3554;42.132;24.786;2023-02-20T03:36:53;99595.84;;;12.29;100.00
7026;BME280;3554;42.132;24.786;2023-02-20T03:39:44;99617.47;;;12.35;100.00
7026;BME280;3554;42.132;24.786;2023-02-20T03:42:35;99612.22;;;12.35;100.00
7026;BME280;3554;42.132;24.786;2023-02-20T03:45:22;99620.09;;;12.35;100.00
7026;BME280;3554;42.132;24.786;2023-02-20T03:47:52;99619.00;;;12.39;100.00
7026;BME280;3554;42.132;24.786;2023-02-20T03:50:20;99638.03;;;12.44;100.00
7026;BME280;3554;42.132;24.786;2023-02-20T03:53:04;99623.34;;;12.40;100.00
7026;BME280;3554;42.132;24.786;2023-02-20T03:55:32;99636.47;;;12.40;100.00
7026;BME280;3554;42.132;24.786;2023-02-20T03:58:02;99636.22;;;12.26;100.00
7026;BME280;3554;42.132;24.786;2023-02-20T04:00:34;99660.03;;;12.42;100.00
7026;BME280;3554;42.132;24.786;2023-02-20T04:03:08;99661.28;;;12.33;100.00
7026;BME280;3554;42.132;24.786;2023-02-20T04:05:39;99659.19;;;12.41;100.00
7026;BME280;3554;42.132;24.786;2023-02-20T04:08:10;99654.78;;;12.42;100.00
7026;BME280;3554;42.132;24.786;2023-02-20T04:10:43;99672.31;;;12.41;100.00
7026;BME280;3554;42.132;24.786;2023-02-20T04:13:12;99663.47;;;12.44;100.00
7026;BME280;3554;42.132;24.786;2023-02-20T04:15:40;99655.66;;;12.42;100.00
7026;BME280;3554;42.132;24.786;2023-02-20T04:18:10;99635.16;;;12.30;100.00
7026;BME280;3554;42.132;24.786;2023-02-20T04:20:37;99666.41;;;12.36;100.00
7026;BME280;3554;42.132;24.786;2023-02-20T04:23:08;99657.81;;;12.33;100.00
7026;BME280;3554;42.132;24.786;2023-02-20T04:25:39;99659.63;;;12.31;100.00
7026;BME280;3554;42.132;24.786;2023-02-20T04:28:10;99668.84;;;12.21;100.00
7026;BME280;3554;42.132;24.786;2023-02-20T04:30:37;99658.44;;;12.18;100.00
7026;BME280;3554;42.132;24.786;2023-02-20T04:33:04;99659.13;;;12.23;100.00
7026;BME280;3554;42.132;24.786;2023-02-20T04:35:31;99665.81;;;12.10;100.00
7026;BME280;3554;42.132;24.786;2023-02-20T04:37:58;99671.94;;;12.09;100.00
7026;BME280;3554;42.132;24.786;2023-02-20T04:40:24;99660.72;;;12.05;100.00
7026;BME280;3554;42.132;24.786;2023-02-20T04:42:51;99663.50;;;12.02;100.00
7026;BME280;3554;42.132;24.786;2023-02-20T04:45:19;99661.72;;;12.03;100.00
7026;BME280;3554;42.132;24.786;2023-02-20T04:47:46;99658.63;;;11.93;100.00
7026;BME280;3554;42.132;24.786;2023-02-20T04:50:16;99641.94;;;11.74;100.00
7026;BME280;3554;42.132;24.786;2023-02-20T04:52:44;99666.03;;;11.83;100.00
7026;BME280;3554;42.132;24.786;2023-02-20T04:55:11;99659.50;;;11.72;100.00
7026;BME280;3554;42.132;24.786;2023-02-20T04:57:38;99652.81;;;11.65;100.00
7026;BME280;3554;42.132;24.786;2023-02-20T05:00:06;99620.47;;;11.43;100.00
7026;BME280;3554;42.132;24.786;2023-02-20T05:02:36;99672.63;;;11.72;100.00
7026;BME280;3554;42.132;24.786;2023-02-20T05:05:04;99653.72;;;11.62;100.00
7026;BME280;3554;42.132;24.786;2023-02-20T05:07:32;99663.84;;;11.73;100.00
7026;BME280;3554;42.132;24.786;2023-02-20T05:09:59;99660.25;;;11.75;100.00
7026;BME280;3554;42.132;24.786;2023-02-20T05:12:26;99673.34;;;11.75;100.00
7026;BME280;3554;42.132;24.786;2023-02-20T05:14:52;99677.50;;;11.81;100.00
7026;BME280;3554;42.132;24.786;2023-02-20T05:17:19;99679.09;;;11.85;100.00
7026;BME280;3554;42.132;24.786;2023-02-20T05:19:47;99691.41;;;11.83;100.00
7026;BME280;3554;42.132;24.786;2023-02-20T05:22:14;99697.75;;;11.77;100.00
7026;BME280;3554;42.132;24.786;2023-02-20T05:24:48;99697.88;;;11.74;100.00
7026;BME280;3554;42.132;24.786;2023-02-20T05:27:16;99707.22;;;11.58;100.00
7026;BME280;3554;42.132;24.786;2023-02-20T05:29:44;99704.16;;;11.47;100.00
7026;BME280;3554;42.132;24.786;2023-02-20T05:32:12;99670.00;;;11.27;100.00
7026;BME280;3554;42.132;24.786;2023-02-20T05:34:39;99712.56;;;11.55;100.00
7026;BME280;3554;42.132;24.786;2023-02-20T05:37:07;99731.00;;;11.54;100.00
7026;BME280;3554;42.132;24.786;2023-02-20T05:39:34;99719.75;;;11.50;100.00
7026;BME280;3554;42.132;24.786;2023-02-20T05:42:01;99746.66;;;11.55;100.00
7026;BME280;3554;42.132;24.786;2023-02-20T05:44:28;99747.38;;;11.59;100.00
7026;BME280;3554;42.132;24.786;2023-02-20T05:46:54;99756.84;;;11.63;100.00
7026;BME280;3554;42.132;24.786;2023-02-20T05:49:22;99744.66;;;11.62;100.00
7026;BME280;3554;42.132;24.786;2023-02-20T05:51:49;99741.72;;;11.71;100.00
7026;BME280;3554;42.132;24.786;2023-02-20T05:54:17;99760.19;;;11.90;100.00
7026;BME280;3554;42.132;24.786;2023-02-20T05:56:45;99767.09;;;11.92;100.00
7026;BME280;3554;42.132;24.786;2023-02-20T05:59:13;99783.16;;;12.06;100.00
7026;BME280;3554;42.132;24.786;2023-02-20T06:01:40;99735.78;;;11.88;100.00
7026;BME280;3554;42.132;24.786;2023-02-20T06:04:07;99786.88;;;12.22;100.00
7026;BME280;3554;42.132;24.786;2023-02-20T06:06:35;99753.25;;;12.10;100.00
7026;BME280;3554;42.132;24.786;2023-02-20T06:09:02;99785.47;;;12.35;100.00
7026;BME280;3554;42.132;24.786;2023-02-20T06:11:33;99800.06;;;12.41;100.00
7026;BME280;3554;42.132;24.786;2023-02-20T06:14:00;99822.00;;;12.40;100.00
7026;BME280;3554;42.132;24.786;2023-02-20T06:16:28;99815.59;;;12.47;100.00
7026;BME280;3554;42.132;24.786;2023-02-20T06:18:55;99828.78;;;12.45;100.00
7026;BME280;3554;42.132;24.786;2023-02-20T06:21:24;99817.28;;;12.48;100.00
7026;BME280;3554;42.132;24.786;2023-02-20T06:23:52;99822.16;;;12.57;100.00
7026;BME280;3554;42.132;24.786;2023-02-20T06:26:20;99836.44;;;12.71;100.00
7026;BME280;3554;42.132;24.786;2023-02-20T06:28:49;99831.97;;;12.73;100.00
7026;BME280;3554;42.132;24.786;2023-02-20T06:31:20;99845.25;;;12.70;100.00
7026;BME280;3554;42.132;24.786;2023-02-20T06:33:47;99857.84;;;12.82;100.00
7026;BME280;3554;42.132;24.786;2023-02-20T06:36:19;99847.94;;;12.89;99.56
7026;BME280;3554;42.132;24.786;2023-02-20T06:38:46;99846.72;;;12.98;95.71
7026;BME280;3554;42.132;24.786;2023-02-20T06:41:14;99839.56;;;13.01;92.34
7026;BME280;3554;42.132;24.786;2023-02-20T06:43:41;99842.59;;;13.12;91.22
7026;BME280;3554;42.132;24.786;2023-02-20T06:46:09;99833.50;;;13.19;90.12
7026;BME280;3554;42.132;24.786;2023-02-20T06:48:43;99817.75;;;13.19;88.34
7026;BME280;3554;42.132;24.786;2023-02-20T06:51:10;99819.25;;;13.25;87.98
7026;BME280;3554;42.132;24.786;2023-02-20T06:53:37;99817.22;;;13.31;89.22
7026;BME280;3554;42.132;24.786;2023-02-20T06:56:07;99821.22;;;13.40;87.23
7026;BME280;3554;42.132;24.786;2023-02-20T06:58:34;99816.75;;;13.42;87.65
7026;BME280;3554;42.132;24.786;2023-02-20T07:01:01;99807.00;;;13.44;87.83
7026;BME280;3554;42.132;24.786;2023-02-20T07:03:29;99812.28;;;13.44;88.12
7026;BME280;3554;42.132;24.786;2023-02-20T07:05:55;99803.91;;;13.54;88.35
7026;BME280;3554;42.132;24.786;2023-02-20T07:08:22;99812.72;;;13.72;87.67
7026;BME280;3554;42.132;24.786;2023-02-20T07:10:49;99813.78;;;13.86;86.66
7026;BME280;3554;42.132;24.786;2023-02-20T07:13:16;99814.19;;;13.96;85.67
7026;BME280;3554;42.132;24.786;2023-02-20T07:15:43;99811.41;;;13.99;84.30
7026;BME280;3554;42.132;24.786;2023-02-20T07:18:09;99805.38;;;13.97;83.08
7026;BME280;3554;42.132;24.786;2023-02-20T07:20:37;99820.66;;;14.08;82.01
7026;BME280;3554;42.132;24.786;2023-02-20T07:23:04;99815.31;;;14.09;80.93
7026;BME280;3554;42.132;24.786;2023-02-20T07:25:31;99815.16;;;14.12;80.26
7026;BME280;3554;42.132;24.786;2023-02-20T07:27:58;99811.38;;;14.18;79.58
7026;BME280;3554;42.132;24.786;2023-02-20T07:30:24;99779.50;;;14.24;75.59
7026;BME280;3554;42.132;24.786;2023-02-20T07:32:51;99822.63;;;14.21;74.73
7026;BME280;3554;42.132;24.786;2023-02-20T07:35:18;99816.88;;;14.32;73.91
7026;BME280;3554;42.132;24.786;2023-02-20T07:37:46;99825.19;;;14.41;73.39
7026;BME280;3554;42.132;24.786;2023-02-20T07:40:13;99849.06;;;14.55;72.53
7026;BME280;3554;42.132;24.786;2023-02-20T07:42:39;99838.25;;;14.61;71.59
7026;BME280;3554;42.132;24.786;2023-02-20T07:45:07;99823.59;;;14.56;69.02
7026;BME280;3554;42.132;24.786;2023-02-20T07:47:34;99840.75;;;14.46;67.73
7026;BME280;3554;42.132;24.786;2023-02-20T07:50:02;99792.38;;;14.30;67.12
7026;BME280;3554;42.132;24.786;2023-02-20T07:52:31;99833.34;;;14.54;65.57
7026;BME280;3554;42.132;24.786;2023-02-20T07:55:00;99813.19;;;14.53;65.37
7026;BME280;3554;42.132;24.786;2023-02-20T07:57:35;99805.31;;;14.70;64.58
7026;BME280;3554;42.132;24.786;2023-02-20T08:00:02;99818.31;;;14.73;63.46
7026;BME280;3554;42.132;24.786;2023-02-20T08:02:29;99801.19;;;14.64;62.11
7026;BME280;3554;42.132;24.786;2023-02-20T08:04:56;99794.38;;;14.60;60.22
7026;BME280;3554;42.132;24.786;2023-02-20T08:07:23;99802.88;;;14.65;60.83
7026;BME280;3554;42.132;24.786;2023-02-20T08:09:50;99803.13;;;14.78;60.98
7026;BME280;3554;42.132;24.786;2023-02-20T08:12:18;99780.72;;;14.69;60.03
7026;BME280;3554;42.132;24.786;2023-02-20T08:14:45;99800.50;;;14.61;59.95
7026;BME280;3554;42.132;24.786;2023-02-20T08:17:11;99806.47;;;14.64;60.56
7026;BME280;3554;42.132;24.786;2023-02-20T08:19:38;99801.34;;;14.78;58.53
7026;BME280;3554;42.132;24.786;2023-02-20T08:22:05;99811.25;;;14.90;57.93
7026;BME280;3554;42.132;24.786;2023-02-20T08:24:32;99794.91;;;15.01;57.33
7026;BME280;3554;42.132;24.786;2023-02-20T08:26:59;99799.31;;;15.18;55.94
7026;BME280;3554;42.132;24.786;2023-02-20T08:29:27;99757.53;;;15.26;53.60
7026;BME280;3554;42.132;24.786;2023-02-20T08:31:54;99815.34;;;15.13;51.86
7026;BME280;3554;42.132;24.786;2023-02-20T08:34:20;99816.06;;;14.99;51.34
7026;BME280;3554;42.132;24.786;2023-02-20T08:36:47;99800.72;;;15.08;51.31
7026;BME280;3554;42.132;24.786;2023-02-20T08:39:14;99796.06;;;14.95;50.81
7026;BME280;3554;42.132;24.786;2023-02-20T08:41:41;99784.22;;;14.87;50.32
7026;BME280;3554;42.132;24.786;2023-02-20T08:44:08;99817.47;;;15.07;50.99
7026;BME280;3554;42.132;24.786;2023-02-20T08:46:37;99823.47;;;15.26;49.79
7026;BME280;3554;42.132;24.786;2023-02-20T08:49:10;99806.56;;;15.30;49.28
7026;BME280;3554;42.132;24.786;2023-02-20T08:51:37;99815.06;;;15.35;48.96
7026;BME280;3554;42.132;24.786;2023-02-20T08:54:04;99815.19;;;15.50;48.54
7026;BME280;3554;42.132;24.786;2023-02-20T08:56:30;99810.41;;;15.57;48.11
7026;BME280;3554;42.132;24.786;2023-02-20T08:58:57;99845.16;;;15.65;47.63
7026;BME280;3554;42.132;24.786;2023-02-20T09:01:24;99831.25;;;15.61;46.88
7026;BME280;3554;42.132;24.786;2023-02-20T09:03:52;99837.00;;;15.69;45.73
7026;BME280;3554;42.132;24.786;2023-02-20T09:06:20;99844.34;;;15.80;45.34
7026;BME280;3554;42.132;24.786;2023-02-20T09:08:49;99836.66;;;15.75;43.69
7026;BME280;3554;42.132;24.786;2023-02-20T09:11:15;99849.44;;;15.83;43.93
7026;BME280;3554;42.132;24.786;2023-02-20T09:13:43;99841.19;;;15.73;41.27
7026;BME280;3554;42.132;24.786;2023-02-20T09:16:10;99866.31;;;15.80;40.69
7026;BME280;3554;42.132;24.786;2023-02-20T09:18:37;99853.22;;;15.94;40.61
7026;BME280;3554;42.132;24.786;2023-02-20T09:21:08;99852.25;;;16.11;39.99
7026;BME280;3554;42.132;24.786;2023-02-20T09:23:35;99867.19;;;16.12;39.86
7026;BME280;3554;42.132;24.786;2023-02-20T09:26:02;99864.38;;;15.99;40.16
7026;BME280;3554;42.132;24.786;2023-02-20T09:28:30;99852.03;;;16.16;38.35
7026;BME280;3554;42.132;24.786;2023-02-20T09:30:56;99854.00;;;15.96;36.91
7026;BME280;3554;42.132;24.786;2023-02-20T09:33:25;99843.06;;;16.02;37.98
7026;BME280;3554;42.132;24.786;2023-02-20T09:35:53;99845.03;;;15.99;37.41
7026;BME280;3554;42.132;24.786;2023-02-20T09:38:22;99843.94;;;16.03;37.60
7026;BME280;3554;42.132;24.786;2023-02-20T09:40:53;99803.56;;;15.85;38.22
7026;BME280;3554;42.132;24.786;2023-02-20T09:43:29;99817.69;;;16.00;36.57
7026;BME280;3554;42.132;24.786;2023-02-20T09:46:03;99827.00;;;16.07;37.21
7026;BME280;3554;42.132;24.786;2023-02-20T09:48:39;99770.78;;;15.89;35.67
7026;BME280;3554;42.132;24.786;2023-02-20T09:51:11;99819.06;;;16.23;35.39
7026;BME280;3554;42.132;24.786;2023-02-20T09:53:49;99815.81;;;16.33;35.03
7026;BME280;3554;42.132;24.786;2023-02-20T09:56:20;99773.41;;;15.89;34.50
7026;BME280;3554;42.132;24.786;2023-02-20T09:58:53;99789.03;;;16.24;33.79
7026;BME280;3554;42.132;24.786;2023-02-20T10:01:25;99807.72;;;16.21;33.96
7026;BME280;3554;42.132;24.786;2023-02-20T10:03:54;99800.28;;;16.27;32.21
7026;BME280;3554;42.132;24.786;2023-02-20T10:06:25;99808.22;;;16.43;31.70
7026;BME280;3554;42.132;24.786;2023-02-20T10:08:54;99833.78;;;16.42;31.96
7026;BME280;3554;42.132;24.786;2023-02-20T10:11:40;99816.75;;;16.32;31.16
7026;BME280;3554;42.132;24.786;2023-02-20T10:14:33;99790.16;;;16.35;31.57
7026;BME280;3554;42.132;24.786;2023-02-20T10:17:08;99806.44;;;16.28;31.59
7026;BME280;3554;42.132;24.786;2023-02-20T10:19:43;99816.88;;;16.45;31.82
7026;BME280;3554;42.132;24.786;2023-02-20T10:22:19;99801.75;;;16.48;30.57
7026;BME280;3554;42.132;24.786;2023-02-20T10:24:56;99830.09;;;16.45;31.26
7026;BME280;3554;42.132;24.786;2023-02-20T10:27:30;99825.66;;;16.61;30.74
7026;BME280;3554;42.132;24.786;2023-02-20T10:30:02;99828.81;;;16.67;29.67
7026;BME280;3554;42.132;24.786;2023-02-20T10:32:35;99816.38;;;16.54;30.10
7026;BME280;3554;42.132;24.786;2023-02-20T10:35:09;99846.06;;;16.59;30.70
7026;BME280;3554;42.132;24.786;2023-02-20T10:37:40;99852.38;;;16.56;30.95
7026;BME280;3554;42.132;24.786;2023-02-20T10:40:15;99847.22;;;16.69;30.21
7026;BME280;3554;42.132;24.786;2023-02-20T10:42:46;99836.31;;;16.75;30.54
7026;BME280;3554;42.132;24.786;2023-02-20T10:45:24;99842.00;;;16.83;30.37
7026;BME280;3554;42.132;24.786;2023-02-20T10:47:57;99789.97;;;16.38;30.28
7026;BME280;3554;42.132;24.786;2023-02-20T10:50:32;99775.59;;;16.28;30.16
7026;BME280;3554;42.132;24.786;2023-02-20T10:53:06;99849.19;;;16.65;29.98
7026;BME280;3554;42.132;24.786;2023-02-20T10:55:45;99838.09;;;16.74;30.36
7026;BME280;3554;42.132;24.786;2023-02-20T10:58:17;99840.97;;;16.85;30.23
7026;BME280;3554;42.132;24.786;2023-02-20T11:00:49;99849.25;;;16.79;30.50
7026;BME280;3554;42.132;24.786;2023-02-20T11:03:22;99839.72;;;16.61;29.82
7026;BME280;3554;42.132;24.786;2023-02-20T11:05:52;99832.81;;;16.74;30.09
7026;BME280;3554;42.132;24.786;2023-02-20T11:08:19;99840.00;;;16.86;30.51
7026;BME280;3554;42.132;24.786;2023-02-20T11:10:48;99818.19;;;16.83;29.87
7026;BME280;3554;42.132;24.786;2023-02-20T11:13:19;99820.25;;;16.78;30.40
7026;BME280;3554;42.132;24.786;2023-02-20T11:15:49;99830.75;;;16.79;29.86
7026;BME280;3554;42.132;24.786;2023-02-20T11:18:22;99811.69;;;16.88;30.51
7026;BME280;3554;42.132;24.786;2023-02-20T11:20:51;99812.94;;;16.97;30.55
7026;BME280;3554;42.132;24.786;2023-02-20T11:23:34;99780.16;;;16.85;30.62
7026;BME280;3554;42.132;24.786;2023-02-20T11:29:12;99806.56;;;16.71;29.65
7026;BME280;3554;42.132;24.786;2023-02-20T11:31:41;99814.44;;;16.87;29.39
7026;BME280;3554;42.132;24.786;2023-02-20T11:34:15;99800.00;;;16.92;29.71
7026;BME280;3554;42.132;24.786;2023-02-20T11:36:45;99800.94;;;16.91;29.91
7026;BME280;3554;42.132;24.786;2023-02-20T11:39:22;99802.66;;;16.92;29.63
7026;BME280;3554;42.132;24.786;2023-02-20T11:42:04;99808.41;;;16.99;29.67
7026;BME280;3554;42.132;24.786;2023-02-20T11:44:33;99816.03;;;16.89;29.43
7026;BME280;3554;42.132;24.786;2023-02-20T11:47:17;99794.06;;;17.03;29.44
7026;BME280;3554;42.132;24.786;2023-02-20T11:49:44;99808.06;;;17.05;29.67
7026;BME280;3554;42.132;24.786;2023-02-20T11:52:16;99811.91;;;16.99;29.72
7026;BME280;3554;42.132;24.786;2023-02-20T11:54:43;99808.03;;;16.91;29.85
7026;BME280;3554;42.132;24.786;2023-02-20T11:57:23;99816.06;;;17.03;29.88
7026;BME280;3554;42.132;24.786;2023-02-20T12:00:10;99823.38;;;17.14;29.91
7026;BME280;3554;42.132;24.786;2023-02-20T12:02:48;99819.13;;;17.11;29.73
7026;BME280;3554;42.132;24.786;2023-02-20T12:05:15;99789.22;;;16.95;30.05
7026;BME280;3554;42.132;24.786;2023-02-20T12:07:43;99813.59;;;17.00;30.07
7026;BME280;3554;42.132;24.786;2023-02-20T12:12:56;99815.91;;;17.21;30.25
7026;BME280;3554;42.132;24.786;2023-02-20T12:15:26;99801.50;;;16.96;29.90
7026;BME280;3554;42.132;24.786;2023-02-20T12:21:04;99813.13;;;16.94;29.94
7026;BME280;3554;42.132;24.786;2023-02-20T12:23:41;99780.72;;;16.90;30.00
7026;BME280;3554;42.132;24.786;2023-02-20T12:26:21;99816.25;;;17.00;30.20
7026;BME280;3554;42.132;24.786;2023-02-20T12:28:57;99810.50;;;17.08;30.10
7026;BME280;3554;42.132;24.786;2023-02-20T12:31:42;99806.66;;;17.13;30.43
7026;BME280;3554;42.132;24.786;2023-02-20T12:37:05;99811.38;;;17.08;30.48
7026;BME280;3554;42.132;24.786;2023-02-20T12:39:42;99803.03;;;17.14;30.39
7026;BME280;3554;42.132;24.786;2023-02-20T12:42:21;99777.66;;;17.12;29.89
7026;BME280;3554;42.132;24.786;2023-02-20T12:45:01;99803.00;;;17.30;29.61
7026;BME280;3554;42.132;24.786;2023-02-20T12:47:33;99795.22;;;17.41;29.57
7026;BME280;3554;42.132;24.786;2023-02-20T12:53:00;99805.81;;;17.27;30.09
7026;BME280;3554;42.132;24.786;2023-02-20T12:55:37;99797.50;;;17.33;29.90
7026;BME280;3554;42.132;24.786;2023-02-20T12:58:26;99792.13;;;17.35;29.97
7026;BME280;3554;42.132;24.786;2023-02-20T13:00:58;99777.34;;;17.31;30.23
7026;BME280;3554;42.132;24.786;2023-02-20T13:03:37;99801.97;;;17.47;30.31
7026;BME280;3554;42.132;24.786;2023-02-20T13:06:05;99787.56;;;17.37;30.44
7026;BME280;3554;42.132;24.786;2023-02-20T13:08:35;99801.84;;;17.34;30.30
7026;BME280;3554;42.132;24.786;2023-02-20T13:11:09;99800.25;;;17.32;30.24
7026;BME280;3554;42.132;24.786;2023-02-20T13:13:44;99788.03;;;17.29;29.96
7026;BME280;3554;42.132;24.786;2023-02-20T13:16:20;99799.28;;;17.33;30.22
7026;BME280;3554;42.132;24.786;2023-02-20T13:18:55;99786.34;;;17.28;30.41
7026;BME280;3554;42.132;24.786;2023-02-20T13:21:27;99788.41;;;17.23;30.78
7026;BME280;3554;42.132;24.786;2023-02-20T13:26:54;99796.25;;;17.10;30.16
7026;BME280;3554;42.132;24.786;2023-02-20T13:29:23;99748.59;;;16.82;30.08
7026;BME280;3554;42.132;24.786;2023-02-20T13:31:53;99814.69;;;17.26;30.39
7026;BME280;3554;42.132;24.786;2023-02-20T13:34:36;99805.81;;;17.27;30.65
7026;BME280;3554;42.132;24.786;2023-02-20T13:37:04;99821.88;;;17.38;30.05
7026;BME280;3554;42.132;24.786;2023-02-20T13:39:38;99824.44;;;17.40;30.22
7026;BME280;3554;42.132;24.786;2023-02-20T13:42:26;99823.31;;;17.44;30.32
7026;BME280;3554;42.132;24.786;2023-02-20T13:44:53;99833.22;;;17.40;30.05